sensor_id;sensor_type;location;lat;lon;timestamp;P1;durP1;ratioP1;P2;durP2;ratioP2
23451;SDS011;11898;51.130;6.780;2023-04-06T00:00:03;15.63;;;10.95;;
23451;SDS011;11898;51.130;6.780;2023-04-06T00:02:34;17.15;;;11.93;;
23451;SDS011;11898;51.130;6.780;2023-04-06T00:05:02;16.90;;;10.68;;
23451;SDS011;11898;51.130;6.780;2023-04-06T00:07:31;18.05;;;11.35;;
23451;SDS011;11898;51.130;6.780;2023-04-06T00:10:00;19.65;;;12.18;;
23451;SDS011;11898;51.130;6.780;2023-04-06T00:12:29;17.82;;;11.25;;
23451;SDS011;11898;51.130;6.780;2023-04-06T00:15:00;16.73;;;12.03;;
23451;SDS011;11898;51.130;6.780;2023-04-06T00:17:28;17.10;;;11.53;;
23451;SDS011;11898;51.130;6.780;2023-04-06T00:19:57;16.25;;;11.63;;
23451;SDS011;11898;51.130;6.780;2023-04-06T00:22:25;16.27;;;11.33;;
23451;SDS011;11898;51.130;6.780;2023-04-06T00:24:53;20.40;;;11.90;;
23451;SDS011;11898;51.130;6.780;2023-04-06T00:27:22;18.92;;;12.25;;
23451;SDS011;11898;51.130;6.780;2023-04-06T00:29:50;21.20;;;12.20;;
23451;SDS011;11898;51.130;6.780;2023-04-06T00:32:18;17.35;;;11.35;;
23451;SDS011;11898;51.130;6.780;2023-04-06T00:34:47;16.55;;;11.88;;
23451;SDS011;11898;51.130;6.780;2023-04-06T00:37:15;15.98;;;11.03;;
23451;SDS011;11898;51.130;6.780;2023-04-06T00:39:43;14.75;;;11.78;;
23451;SDS011;11898;51.130;6.780;2023-04-06T00:42:12;16.35;;;10.82;;
23451;SDS011;11898;51.130;6.780;2023-04-06T00:44:41;17.12;;;10.68;;
23451;SDS011;11898;51.130;6.780;2023-04-06T00:47:09;15.38;;;10.70;;
23451;SDS011;11898;51.130;6.780;2023-04-06T00:49:37;16.40;;;10.98;;
23451;SDS011;11898;51.130;6.780;2023-04-06T00:52:06;20.23;;;11.60;;
23451;SDS011;11898;51.130;6.780;2023-04-06T00:54:34;19.45;;;12.60;;
23451;SDS011;11898;51.130;6.780;2023-04-06T00:57:02;18.90;;;11.97;;
23451;SDS011;11898;51.130;6.780;2023-04-06T00:59:30;18.07;;;11.60;;
23451;SDS011;11898;51.130;6.780;2023-04-06T01:01:59;18.45;;;11.33;;
23451;SDS011;11898;51.130;6.780;2023-04-06T01:04:28;17.07;;;11.25;;
23451;SDS011;11898;51.130;6.780;2023-04-06T01:06:56;16.00;;;11.15;;
23451;SDS011;11898;51.130;6.780;2023-04-06T01:09:24;19.40;;;11.28;;
23451;SDS011;11898;51.130;6.780;2023-04-06T01:11:53;15.75;;;11.48;;
23451;SDS011;11898;51.130;6.780;2023-04-06T01:14:25;16.10;;;11.80;;
23451;SDS011;11898;51.130;6.780;2023-04-06T01:16:53;20.00;;;13.08;;
23451;SDS011;11898;51.130;6.780;2023-04-06T01:19:22;16.57;;;11.55;;
23451;SDS011;11898;51.130;6.780;2023-04-06T01:21:51;17.32;;;11.00;;
23451;SDS011;11898;51.130;6.780;2023-04-06T01:24:23;15.65;;;11.08;;
23451;SDS011;11898;51.130;6.780;2023-04-06T01:26:51;17.27;;;11.22;;
23451;SDS011;11898;51.130;6.780;2023-04-06T01:29:19;19.98;;;11.90;;
23451;SDS011;11898;51.130;6.780;2023-04-06T01:31:48;17.17;;;11.25;;
23451;SDS011;11898;51.130;6.780;2023-04-06T01:34:16;16.35;;;11.75;;
23451;SDS011;11898;51.130;6.780;2023-04-06T01:36:45;17.37;;;11.00;;
23451;SDS011;11898;51.130;6.780;2023-04-06T01:39:13;18.92;;;11.45;;
23451;SDS011;11898;51.130;6.780;2023-04-06T01:41:41;17.23;;;11.63;;
23451;SDS011;11898;51.130;6.780;2023-04-06T01:44:10;15.70;;;11.22;;
23451;SDS011;11898;51.130;6.780;2023-04-06T01:46:38;16.77;;;11.95;;
23451;SDS011;11898;51.130;6.780;2023-04-06T01:49:06;19.55;;;11.85;;
23451;SDS011;11898;51.130;6.780;2023-04-06T01:51:35;17.37;;;11.08;;
23451;SDS011;11898;51.130;6.780;2023-04-06T01:54:03;17.82;;;11.35;;
23451;SDS011;11898;51.130;6.780;2023-04-06T01:56:32;15.80;;;11.38;;
23451;SDS011;11898;51.130;6.780;2023-04-06T01:59:00;17.27;;;11.73;;
23451;SDS011;11898;51.130;6.780;2023-04-06T02:01:28;16.70;;;11.35;;
23451;SDS011;11898;51.130;6.780;2023-04-06T02:03:57;19.55;;;11.43;;
23451;SDS011;11898;51.130;6.780;2023-04-06T02:06:25;17.42;;;13.05;;
23451;SDS011;11898;51.130;6.780;2023-04-06T02:08:54;18.85;;;11.50;;
23451;SDS011;11898;51.130;6.780;2023-04-06T02:11:22;15.88;;;12.20;;
23451;SDS011;11898;51.130;6.780;2023-04-06T02:13:50;15.03;;;10.88;;
23451;SDS011;11898;51.130;6.780;2023-04-06T02:16:18;16.82;;;11.48;;
23451;SDS011;11898;51.130;6.780;2023-04-06T02:18:47;17.80;;;11.00;;
23451;SDS011;11898;51.130;6.780;2023-04-06T02:21:15;16.05;;;11.80;;
23451;SDS011;11898;51.130;6.780;2023-04-06T02:23:45;22.67;;;11.83;;
23451;SDS011;11898;51.130;6.780;2023-04-06T02:26:14;15.75;;;11.25;;
23451;SDS011;11898;51.130;6.780;2023-04-06T02:28:43;16.50;;;11.78;;
23451;SDS011;11898;51.130;6.780;2023-04-06T02:31:11;21.48;;;11.33;;
23451;SDS011;11898;51.130;6.780;2023-04-06T02:33:41;19.60;;;12.53;;
23451;SDS011;11898;51.130;6.780;2023-04-06T02:36:09;19.20;;;12.68;;
23451;SDS011;11898;51.130;6.780;2023-04-06T02:38:38;17.10;;;12.00;;
23451;SDS011;11898;51.130;6.780;2023-04-06T02:41:06;17.20;;;12.15;;
23451;SDS011;11898;51.130;6.780;2023-04-06T02:43:34;19.35;;;12.23;;
23451;SDS011;11898;51.130;6.780;2023-04-06T02:46:03;18.87;;;11.97;;
23451;SDS011;11898;51.130;6.780;2023-04-06T02:48:31;18.77;;;12.05;;
23451;SDS011;11898;51.130;6.780;2023-04-06T02:51:01;22.52;;;12.28;;
23451;SDS011;11898;51.130;6.780;2023-04-06T02:53:29;15.32;;;11.97;;
23451;SDS011;11898;51.130;6.780;2023-04-06T02:55:58;20.30;;;13.58;;
23451;SDS011;11898;51.130;6.780;2023-04-06T02:58:26;21.87;;;11.68;;
23451;SDS011;11898;51.130;6.780;2023-04-06T03:00:54;21.05;;;12.98;;
23451;SDS011;11898;51.130;6.780;2023-04-06T03:03:23;17.80;;;12.10;;
23451;SDS011;11898;51.130;6.780;2023-04-06T03:05:51;21.07;;;12.40;;
23451;SDS011;11898;51.130;6.780;2023-04-06T03:08:21;16.95;;;11.63;;
23451;SDS011;11898;51.130;6.780;2023-04-06T03:10:50;14.53;;;10.95;;
23451;SDS011;11898;51.130;6.780;2023-04-06T03:13:18;15.58;;;11.55;;
23451;SDS011;11898;51.130;6.780;2023-04-06T03:15:55;16.60;;;11.53;;
23451;SDS011;11898;51.130;6.780;2023-04-06T03:18:24;14.85;;;11.73;;
23451;SDS011;11898;51.130;6.780;2023-04-06T03:20:53;14.43;;;11.43;;
23451;SDS011;11898;51.130;6.780;2023-04-06T03:23:21;16.30;;;11.50;;
23451;SDS011;11898;51.130;6.780;2023-04-06T03:25:50;15.30;;;10.53;;
23451;SDS011;11898;51.130;6.780;2023-04-06T03:28:18;16.17;;;11.57;;
23451;SDS011;11898;51.130;6.780;2023-04-06T03:30:46;16.32;;;11.70;;
23451;SDS011;11898;51.130;6.780;2023-04-06T03:33:15;17.85;;;11.28;;
23451;SDS011;11898;51.130;6.780;2023-04-06T03:35:45;16.97;;;10.80;;
23451;SDS011;11898;51.130;6.780;2023-04-06T03:38:14;16.82;;;11.03;;
23451;SDS011;11898;51.130;6.780;2023-04-06T03:40:42;15.43;;;10.58;;
23451;SDS011;11898;51.130;6.780;2023-04-06T03:43:10;14.98;;;10.32;;
23451;SDS011;11898;51.130;6.780;2023-04-06T03:45:39;16.07;;;10.60;;
23451;SDS011;11898;51.130;6.780;2023-04-06T03:48:07;18.30;;;10.53;;
23451;SDS011;11898;51.130;6.780;2023-04-06T03:50:35;16.42;;;11.00;;
23451;SDS011;11898;51.130;6.780;2023-04-06T03:53:04;14.55;;;10.35;;
23451;SDS011;11898;51.130;6.780;2023-04-06T03:55:32;14.80;;;10.75;;
23451;SDS011;11898;51.130;6.780;2023-04-06T03:58:00;14.68;;;10.80;;
23451;SDS011;11898;51.130;6.780;2023-04-06T04:00:31;12.93;;;9.03;;
23451;SDS011;11898;51.130;6.780;2023-04-06T04:03:00;16.93;;;10.75;;
23451;SDS011;11898;51.130;6.780;2023-04-06T04:05:29;14.63;;;9.68;;
23451;SDS011;11898;51.130;6.780;2023-04-06T04:07:58;16.82;;;11.05;;
23451;SDS011;11898;51.130;6.780;2023-04-06T04:10:26;14.68;;;10.68;;
23451;SDS011;11898;51.130;6.780;2023-04-06T04:12:58;15.15;;;10.32;;
23451;SDS011;11898;51.130;6.780;2023-04-06T04:15:26;13.90;;;9.35;;
23451;SDS011;11898;51.130;6.780;2023-04-06T04:17:54;13.15;;;9.70;;
23451;SDS011;11898;51.130;6.780;2023-04-06T04:20:23;14.73;;;11.22;;
23451;SDS011;11898;51.130;6.780;2023-04-06T04:22:51;15.50;;;11.33;;
23451;SDS011;11898;51.130;6.780;2023-04-06T04:25:19;17.40;;;10.48;;
23451;SDS011;11898;51.130;6.780;2023-04-06T04:27:48;14.73;;;10.53;;
23451;SDS011;11898;51.130;6.780;2023-04-06T04:30:16;16.50;;;10.38;;
23451;SDS011;11898;51.130;6.780;2023-04-06T04:32:44;15.10;;;10.68;;
23451;SDS011;11898;51.130;6.780;2023-04-06T04:35:13;16.25;;;10.98;;
23451;SDS011;11898;51.130;6.780;2023-04-06T04:37:41;19.07;;;11.88;;
23451;SDS011;11898;51.130;6.780;2023-04-06T04:40:09;15.32;;;11.30;;
23451;SDS011;11898;51.130;6.780;2023-04-06T04:42:38;18.32;;;10.48;;
23451;SDS011;11898;51.130;6.780;2023-04-06T04:45:06;13.72;;;10.50;;
23451;SDS011;11898;51.130;6.780;2023-04-06T04:47:35;17.07;;;11.50;;
23451;SDS011;11898;51.130;6.780;2023-04-06T04:50:03;16.32;;;11.03;;
23451;SDS011;11898;51.130;6.780;2023-04-06T04:52:31;16.65;;;10.98;;
23451;SDS011;11898;51.130;6.780;2023-04-06T04:55:00;15.20;;;10.63;;
23451;SDS011;11898;51.130;6.780;2023-04-06T04:57:28;12.75;;;10.60;;
23451;SDS011;11898;51.130;6.780;2023-04-06T04:59:56;13.05;;;9.75;;
23451;SDS011;11898;51.130;6.780;2023-04-06T05:02:25;12.80;;;9.08;;
23451;SDS011;11898;51.130;6.780;2023-04-06T05:04:54;12.60;;;8.95;;
23451;SDS011;11898;51.130;6.780;2023-04-06T05:07:22;18.45;;;10.85;;
23451;SDS011;11898;51.130;6.780;2023-04-06T05:09:51;14.38;;;7.55;;
23451;SDS011;11898;51.130;6.780;2023-04-06T05:12:19;13.43;;;9.60;;
23451;SDS011;11898;51.130;6.780;2023-04-06T05:14:47;14.25;;;9.15;;
23451;SDS011;11898;51.130;6.780;2023-04-06T05:17:16;16.02;;;10.95;;
23451;SDS011;11898;51.130;6.780;2023-04-06T05:19:44;15.85;;;10.68;;
23451;SDS011;11898;51.130;6.780;2023-04-06T05:22:12;16.90;;;10.32;;
23451;SDS011;11898;51.130;6.780;2023-04-06T05:24:43;15.15;;;9.00;;
23451;SDS011;11898;51.130;6.780;2023-04-06T05:27:11;15.00;;;9.95;;
23451;SDS011;11898;51.130;6.780;2023-04-06T05:29:40;14.78;;;11.35;;
23451;SDS011;11898;51.130;6.780;2023-04-06T05:32:08;16.42;;;10.18;;
23451;SDS011;11898;51.130;6.780;2023-04-06T05:34:37;20.62;;;12.10;;
23451;SDS011;11898;51.130;6.780;2023-04-06T05:37:05;17.50;;;10.88;;
23451;SDS011;11898;51.130;6.780;2023-04-06T05:39:34;15.32;;;11.50;;
23451;SDS011;11898;51.130;6.780;2023-04-06T05:42:04;15.58;;;11.20;;
23451;SDS011;11898;51.130;6.780;2023-04-06T05:44:36;15.53;;;10.48;;
23451;SDS011;11898;51.130;6.780;2023-04-06T05:47:04;14.65;;;10.65;;
23451;SDS011;11898;51.130;6.780;2023-04-06T05:49:33;14.58;;;9.85;;
23451;SDS011;11898;51.130;6.780;2023-04-06T05:52:01;17.40;;;10.75;;
23451;SDS011;11898;51.130;6.780;2023-04-06T05:54:31;14.23;;;10.72;;
23451;SDS011;11898;51.130;6.780;2023-04-06T05:57:01;14.40;;;9.83;;
23451;SDS011;11898;51.130;6.780;2023-04-06T05:59:30;14.95;;;9.80;;
23451;SDS011;11898;51.130;6.780;2023-04-06T06:01:59;14.40;;;10.98;;
23451;SDS011;11898;51.130;6.780;2023-04-06T06:04:28;17.77;;;9.58;;
23451;SDS011;11898;51.130;6.780;2023-04-06T06:06:56;14.70;;;9.50;;
23451;SDS011;11898;51.130;6.780;2023-04-06T06:09:25;10.30;;;8.00;;
23451;SDS011;11898;51.130;6.780;2023-04-06T06:11:55;11.90;;;9.05;;
23451;SDS011;11898;51.130;6.780;2023-04-06T06:14:23;12.63;;;9.00;;
23451;SDS011;11898;51.130;6.780;2023-04-06T06:16:52;10.68;;;8.58;;
23451;SDS011;11898;51.130;6.780;2023-04-06T06:19:21;12.37;;;8.73;;
23451;SDS011;11898;51.130;6.780;2023-04-06T06:21:50;9.93;;;7.87;;
23451;SDS011;11898;51.130;6.780;2023-04-06T06:24:18;11.10;;;9.18;;
23451;SDS011;11898;51.130;6.780;2023-04-06T06:26:47;12.10;;;7.12;;
23451;SDS011;11898;51.130;6.780;2023-04-06T06:29:16;10.68;;;8.90;;
23451;SDS011;11898;51.130;6.780;2023-04-06T06:31:44;9.43;;;7.75;;
23451;SDS011;11898;51.130;6.780;2023-04-06T06:34:12;10.23;;;7.92;;
23451;SDS011;11898;51.130;6.780;2023-04-06T06:36:41;11.90;;;8.35;;
23451;SDS011;11898;51.130;6.780;2023-04-06T06:39:11;10.38;;;7.47;;
23451;SDS011;11898;51.130;6.780;2023-04-06T06:44:32;11.48;;;8.45;;
23451;SDS011;11898;51.130;6.780;2023-04-06T06:47:00;15.53;;;9.23;;
23451;SDS011;11898;51.130;6.780;2023-04-06T06:49:28;12.23;;;8.90;;
23451;SDS011;11898;51.130;6.780;2023-04-06T06:51:56;11.85;;;9.30;;
23451;SDS011;11898;51.130;6.780;2023-04-06T06:54:24;11.90;;;7.75;;
23451;SDS011;11898;51.130;6.780;2023-04-06T06:56:53;12.28;;;7.70;;
23451;SDS011;11898;51.130;6.780;2023-04-06T06:59:22;11.35;;;6.67;;
23451;SDS011;11898;51.130;6.780;2023-04-06T07:01:50;12.70;;;8.80;;
23451;SDS011;11898;51.130;6.780;2023-04-06T07:04:19;10.65;;;8.20;;
23451;SDS011;11898;51.130;6.780;2023-04-06T07:06:47;13.03;;;9.25;;
23451;SDS011;11898;51.130;6.780;2023-04-06T07:09:15;10.10;;;7.85;;
23451;SDS011;11898;51.130;6.780;2023-04-06T07:11:44;11.15;;;7.78;;
23451;SDS011;11898;51.130;6.780;2023-04-06T07:14:12;9.05;;;8.03;;
23451;SDS011;11898;51.130;6.780;2023-04-06T07:16:41;13.50;;;9.05;;
23451;SDS011;11898;51.130;6.780;2023-04-06T07:19:11;12.55;;;9.08;;
23451;SDS011;11898;51.130;6.780;2023-04-06T07:21:40;10.68;;;8.85;;
23451;SDS011;11898;51.130;6.780;2023-04-06T07:24:08;10.78;;;9.55;;
23451;SDS011;11898;51.130;6.780;2023-04-06T07:26:37;10.65;;;8.40;;
23451;SDS011;11898;51.130;6.780;2023-04-06T07:29:05;14.30;;;9.58;;
23451;SDS011;11898;51.130;6.780;2023-04-06T07:31:34;14.05;;;9.63;;
23451;SDS011;11898;51.130;6.780;2023-04-06T07:34:03;13.13;;;9.78;;
23451;SDS011;11898;51.130;6.780;2023-04-06T07:36:32;14.40;;;8.45;;
23451;SDS011;11898;51.130;6.780;2023-04-06T07:39:00;12.70;;;9.10;;
23451;SDS011;11898;51.130;6.780;2023-04-06T07:41:28;14.15;;;10.48;;
23451;SDS011;11898;51.130;6.780;2023-04-06T07:43:57;34.80;;;20.85;;
23451;SDS011;11898;51.130;6.780;2023-04-06T07:46:25;10.93;;;8.20;;
23451;SDS011;11898;51.130;6.780;2023-04-06T07:48:53;11.18;;;9.53;;
23451;SDS011;11898;51.130;6.780;2023-04-06T07:51:22;10.32;;;8.13;;
23451;SDS011;11898;51.130;6.780;2023-04-06T07:53:50;11.83;;;8.93;;
23451;SDS011;11898;51.130;6.780;2023-04-06T07:56:19;10.30;;;8.58;;
23451;SDS011;11898;51.130;6.780;2023-04-06T07:58:48;9.03;;;6.60;;
23451;SDS011;11898;51.130;6.780;2023-04-06T08:01:19;11.97;;;8.63;;
23451;SDS011;11898;51.130;6.780;2023-04-06T08:03:48;7.60;;;5.53;;
23451;SDS011;11898;51.130;6.780;2023-04-06T08:06:17;10.05;;;8.48;;
23451;SDS011;11898;51.130;6.780;2023-04-06T08:08:48;10.23;;;7.33;;
23451;SDS011;11898;51.130;6.780;2023-04-06T08:11:16;12.00;;;9.03;;
23451;SDS011;11898;51.130;6.780;2023-04-06T08:13:46;17.82;;;10.35;;
23451;SDS011;11898;51.130;6.780;2023-04-06T08:16:14;13.03;;;9.43;;
23451;SDS011;11898;51.130;6.780;2023-04-06T08:18:45;12.30;;;9.83;;
23451;SDS011;11898;51.130;6.780;2023-04-06T08:21:13;12.95;;;10.58;;
23451;SDS011;11898;51.130;6.780;2023-04-06T08:23:42;15.28;;;10.15;;
23451;SDS011;11898;51.130;6.780;2023-04-06T08:26:13;17.05;;;11.25;;
23451;SDS011;11898;51.130;6.780;2023-04-06T08:28:41;14.73;;;10.43;;
23451;SDS011;11898;51.130;6.780;2023-04-06T08:31:11;14.35;;;11.45;;
23451;SDS011;11898;51.130;6.780;2023-04-06T08:33:40;16.10;;;10.70;;
23451;SDS011;11898;51.130;6.780;2023-04-06T08:36:09;15.18;;;10.55;;
23451;SDS011;11898;51.130;6.780;2023-04-06T08:38:39;13.95;;;9.58;;
23451;SDS011;11898;51.130;6.780;2023-04-06T08:41:11;14.45;;;11.73;;
23451;SDS011;11898;51.130;6.780;2023-04-06T08:43:42;12.55;;;9.65;;
23451;SDS011;11898;51.130;6.780;2023-04-06T08:46:12;18.12;;;11.45;;
23451;SDS011;11898;51.130;6.780;2023-04-06T08:51:12;13.20;;;9.85;;
23451;SDS011;11898;51.130;6.780;2023-04-06T08:53:41;16.12;;;11.03;;
23451;SDS011;11898;51.130;6.780;2023-04-06T08:56:10;16.27;;;11.53;;
23451;SDS011;11898;51.130;6.780;2023-04-06T08:58:39;15.55;;;11.53;;
23451;SDS011;11898;51.130;6.780;2023-04-06T09:01:11;15.08;;;10.03;;
23451;SDS011;11898;51.130;6.780;2023-04-06T09:03:40;10.28;;;8.65;;
23451;SDS011;11898;51.130;6.780;2023-04-06T09:06:10;14.78;;;9.68;;
23451;SDS011;11898;51.130;6.780;2023-04-06T09:08:39;12.13;;;10.28;;
23451;SDS011;11898;51.130;6.780;2023-04-06T09:11:08;14.38;;;10.40;;
23451;SDS011;11898;51.130;6.780;2023-04-06T09:13:55;11.73;;;8.20;;
23451;SDS011;11898;51.130;6.780;2023-04-06T09:16:19;17.90;;;11.90;;
23451;SDS011;11898;51.130;6.780;2023-04-06T09:18:48;17.12;;;9.93;;
23451;SDS011;11898;51.130;6.780;2023-04-06T09:21:18;17.92;;;12.80;;
23451;SDS011;11898;51.130;6.780;2023-04-06T09:23:57;15.32;;;12.03;;
23451;SDS011;11898;51.130;6.780;2023-04-06T09:26:19;14.07;;;11.22;;
23451;SDS011;11898;51.130;6.780;2023-04-06T09:28:49;16.87;;;11.08;;
23451;SDS011;11898;51.130;6.780;2023-04-06T09:31:22;18.10;;;14.13;;
23451;SDS011;11898;51.130;6.780;2023-04-06T09:33:50;17.55;;;12.20;;
23451;SDS011;11898;51.130;6.780;2023-04-06T09:36:19;18.73;;;12.73;;
23451;SDS011;11898;51.130;6.780;2023-04-06T09:38:54;18.95;;;12.33;;
23451;SDS011;11898;51.130;6.780;2023-04-06T09:41:26;20.45;;;12.95;;
23451;SDS011;11898;51.130;6.780;2023-04-06T09:44:01;18.52;;;12.68;;
23451;SDS011;11898;51.130;6.780;2023-04-06T09:46:35;21.40;;;13.38;;
23451;SDS011;11898;51.130;6.780;2023-04-06T09:49:04;20.75;;;12.98;;
23451;SDS011;11898;51.130;6.780;2023-04-06T09:51:39;21.30;;;12.40;;
23451;SDS011;11898;51.130;6.780;2023-04-06T09:54:06;21.75;;;12.50;;
23451;SDS011;11898;51.130;6.780;2023-04-06T09:56:39;15.83;;;12.15;;
23451;SDS011;11898;51.130;6.780;2023-04-06T10:01:35;20.32;;;12.43;;
23451;SDS011;11898;51.130;6.780;2023-04-06T10:06:35;21.10;;;12.98;;
23451;SDS011;11898;51.130;6.780;2023-04-06T10:09:04;18.07;;;12.53;;
23451;SDS011;11898;51.130;6.780;2023-04-06T10:11:35;16.35;;;11.00;;
23451;SDS011;11898;51.130;6.780;2023-04-06T10:14:03;18.92;;;12.25;;
23451;SDS011;11898;51.130;6.780;2023-04-06T10:16:32;15.28;;;10.50;;
23451;SDS011;11898;51.130;6.780;2023-04-06T10:19:09;19.20;;;13.53;;
23451;SDS011;11898;51.130;6.780;2023-04-06T10:21:36;16.62;;;11.83;;
23451;SDS011;11898;51.130;6.780;2023-04-06T10:24:09;17.77;;;12.35;;
23451;SDS011;11898;51.130;6.780;2023-04-06T10:26:38;18.48;;;12.70;;
23451;SDS011;11898;51.130;6.780;2023-04-06T10:29:07;16.42;;;11.93;;
23451;SDS011;11898;51.130;6.780;2023-04-06T10:31:39;22.27;;;10.10;;
23451;SDS011;11898;51.130;6.780;2023-04-06T10:34:05;20.72;;;11.88;;
23451;SDS011;11898;51.130;6.780;2023-04-06T10:36:36;20.77;;;12.05;;
23451;SDS011;11898;51.130;6.780;2023-04-06T10:39:05;17.37;;;12.60;;
23451;SDS011;11898;51.130;6.780;2023-04-06T10:41:52;20.32;;;12.28;;
23451;SDS011;11898;51.130;6.780;2023-04-06T10:44:22;19.42;;;12.60;;
23451;SDS011;11898;51.130;6.780;2023-04-06T10:46:58;18.65;;;11.70;;
23451;SDS011;11898;51.130;6.780;2023-04-06T10:49:29;17.20;;;12.07;;
23451;SDS011;11898;51.130;6.780;2023-04-06T10:51:57;18.55;;;12.15;;
23451;SDS011;11898;51.130;6.780;2023-04-06T10:54:26;19.23;;;13.50;;
23451;SDS011;11898;51.130;6.780;2023-04-06T10:56:54;22.90;;;12.03;;
23451;SDS011;11898;51.130;6.780;2023-04-06T10:59:23;19.17;;;12.95;;
23451;SDS011;11898;51.130;6.780;2023-04-06T11:01:53;24.27;;;13.72;;
23451;SDS011;11898;51.130;6.780;2023-04-06T11:04:23;19.67;;;13.08;;
23451;SDS011;11898;51.130;6.780;2023-04-06T11:06:51;20.80;;;13.18;;
23451;SDS011;11898;51.130;6.780;2023-04-06T11:09:23;19.05;;;12.65;;
23451;SDS011;11898;51.130;6.780;2023-04-06T11:11:52;20.77;;;12.88;;
23451;SDS011;11898;51.130;6.780;2023-04-06T11:14:20;21.37;;;13.38;;
23451;SDS011;11898;51.130;6.780;2023-04-06T11:16:51;17.95;;;12.18;;
23451;SDS011;11898;51.130;6.780;2023-04-06T11:19:19;19.55;;;12.73;;
23451;SDS011;11898;51.130;6.780;2023-04-06T11:21:48;17.87;;;12.28;;
23451;SDS011;11898;51.130;6.780;2023-04-06T11:24:20;22.48;;;12.50;;
23451;SDS011;11898;51.130;6.780;2023-04-06T11:26:55;18.00;;;12.50;;
23451;SDS011;11898;51.130;6.780;2023-04-06T11:29:28;17.40;;;11.03;;
23451;SDS011;11898;51.130;6.780;2023-04-06T11:32:02;17.52;;;10.88;;
23451;SDS011;11898;51.130;6.780;2023-04-06T11:34:43;17.92;;;12.20;;
23451;SDS011;11898;51.130;6.780;2023-04-06T11:37:13;16.82;;;12.33;;
23451;SDS011;11898;51.130;6.780;2023-04-06T11:39:51;20.17;;;12.55;;
23451;SDS011;11898;51.130;6.780;2023-04-06T11:42:12;22.07;;;12.82;;
23451;SDS011;11898;51.130;6.780;2023-04-06T11:44:42;17.73;;;12.10;;
23451;SDS011;11898;51.130;6.780;2023-04-06T11:47:12;18.10;;;11.33;;
23451;SDS011;11898;51.130;6.780;2023-04-06T11:49:45;19.85;;;12.45;;
23451;SDS011;11898;51.130;6.780;2023-04-06T11:52:22;19.07;;;12.80;;
23451;SDS011;11898;51.130;6.780;2023-04-06T11:54:42;17.87;;;12.15;;
23451;SDS011;11898;51.130;6.780;2023-04-06T11:57:10;17.92;;;12.28;;
23451;SDS011;11898;51.130;6.780;2023-04-06T11:59:38;18.67;;;11.48;;
23451;SDS011;11898;51.130;6.780;2023-04-06T12:02:07;19.50;;;11.53;;
23451;SDS011;11898;51.130;6.780;2023-04-06T12:04:35;20.15;;;12.55;;
23451;SDS011;11898;51.130;6.780;2023-04-06T12:07:03;21.05;;;12.35;;
23451;SDS011;11898;51.130;6.780;2023-04-06T12:09:32;18.85;;;12.90;;
23451;SDS011;11898;51.130;6.780;2023-04-06T12:12:02;19.40;;;13.18;;
23451;SDS011;11898;51.130;6.780;2023-04-06T12:14:30;20.10;;;12.80;;
23451;SDS011;11898;51.130;6.780;2023-04-06T12:16:59;18.75;;;12.53;;
23451;SDS011;11898;51.130;6.780;2023-04-06T12:19:27;15.70;;;11.15;;
23451;SDS011;11898;51.130;6.780;2023-04-06T12:21:59;14.15;;;8.95;;
23451;SDS011;11898;51.130;6.780;2023-04-06T12:24:28;15.35;;;9.53;;
23451;SDS011;11898;51.130;6.780;2023-04-06T12:26:57;14.18;;;9.03;;
23451;SDS011;11898;51.130;6.780;2023-04-06T12:29:27;15.13;;;9.85;;
23451;SDS011;11898;51.130;6.780;2023-04-06T12:31:56;16.67;;;9.80;;
23451;SDS011;11898;51.130;6.780;2023-04-06T12:34:25;20.10;;;10.55;;
23451;SDS011;11898;51.130;6.780;2023-04-06T12:36:53;15.65;;;10.10;;
23451;SDS011;11898;51.130;6.780;2023-04-06T12:39:23;15.45;;;9.55;;
23451;SDS011;11898;51.130;6.780;2023-04-06T12:41:52;14.63;;;9.70;;
23451;SDS011;11898;51.130;6.780;2023-04-06T12:44:20;11.93;;;9.25;;
23451;SDS011;11898;51.130;6.780;2023-04-06T12:46:50;13.38;;;9.70;;
23451;SDS011;11898;51.130;6.780;2023-04-06T12:49:19;11.57;;;8.50;;
23451;SDS011;11898;51.130;6.780;2023-04-06T12:51:49;11.53;;;8.10;;
23451;SDS011;11898;51.130;6.780;2023-04-06T12:54:17;13.43;;;8.20;;
23451;SDS011;11898;51.130;6.780;2023-04-06T12:56:45;14.73;;;9.65;;
23451;SDS011;11898;51.130;6.780;2023-04-06T12:59:14;12.15;;;8.43;;
23451;SDS011;11898;51.130;6.780;2023-04-06T13:01:43;13.10;;;8.63;;
23451;SDS011;11898;51.130;6.780;2023-04-06T13:04:12;11.88;;;8.63;;
23451;SDS011;11898;51.130;6.780;2023-04-06T13:06:40;13.10;;;8.58;;
23451;SDS011;11898;51.130;6.780;2023-04-06T13:09:08;12.65;;;8.73;;
23451;SDS011;11898;51.130;6.780;2023-04-06T13:11:37;12.50;;;8.68;;
23451;SDS011;11898;51.130;6.780;2023-04-06T13:14:06;12.88;;;8.70;;
23451;SDS011;11898;51.130;6.780;2023-04-06T13:16:34;11.50;;;8.45;;
23451;SDS011;11898;51.130;6.780;2023-04-06T13:19:03;11.30;;;8.38;;
23451;SDS011;11898;51.130;6.780;2023-04-06T13:21:32;12.40;;;8.65;;
23451;SDS011;11898;51.130;6.780;2023-04-06T13:24:00;14.07;;;8.40;;
23451;SDS011;11898;51.130;6.780;2023-04-06T13:26:31;10.63;;;8.00;;
23451;SDS011;11898;51.130;6.780;2023-04-06T13:29:01;15.72;;;8.63;;
23451;SDS011;11898;51.130;6.780;2023-04-06T13:31:30;11.75;;;8.13;;
23451;SDS011;11898;51.130;6.780;2023-04-06T13:33:58;13.15;;;9.53;;
23451;SDS011;11898;51.130;6.780;2023-04-06T13:36:27;9.63;;;7.60;;
23451;SDS011;11898;51.130;6.780;2023-04-06T13:38:55;10.88;;;7.33;;
23451;SDS011;11898;51.130;6.780;2023-04-06T13:41:24;9.35;;;6.70;;
23451;SDS011;11898;51.130;6.780;2023-04-06T13:43:53;18.17;;;7.35;;
23451;SDS011;11898;51.130;6.780;2023-04-06T13:46:22;9.93;;;7.35;;
23451;SDS011;11898;51.130;6.780;2023-04-06T13:48:51;12.13;;;7.70;;
23451;SDS011;11898;51.130;6.780;2023-04-06T13:51:20;12.25;;;7.60;;
23451;SDS011;11898;51.130;6.780;2023-04-06T13:53:48;8.65;;;6.85;;
23451;SDS011;11898;51.130;6.780;2023-04-06T13:56:18;11.03;;;8.25;;
23451;SDS011;11898;51.130;6.780;2023-04-06T13:58:47;8.40;;;6.15;;
23451;SDS011;11898;51.130;6.780;2023-04-06T14:01:15;10.45;;;7.45;;
23451;SDS011;11898;51.130;6.780;2023-04-06T14:03:44;6.78;;;5.62;;
23451;SDS011;11898;51.130;6.780;2023-04-06T14:06:15;6.37;;;4.90;;
23451;SDS011;11898;51.130;6.780;2023-04-06T14:08:45;7.28;;;5.10;;
23451;SDS011;11898;51.130;6.780;2023-04-06T14:11:14;9.70;;;6.25;;
23451;SDS011;11898;51.130;6.780;2023-04-06T14:13:43;9.35;;;7.05;;
23451;SDS011;11898;51.130;6.780;2023-04-06T14:16:12;9.88;;;7.20;;
23451;SDS011;11898;51.130;6.780;2023-04-06T14:18:40;9.68;;;7.72;;
23451;SDS011;11898;51.130;6.780;2023-04-06T14:21:09;8.95;;;6.92;;
23451;SDS011;11898;51.130;6.780;2023-04-06T14:23:38;9.73;;;7.53;;
23451;SDS011;11898;51.130;6.780;2023-04-06T14:26:07;8.55;;;6.37;;
23451;SDS011;11898;51.130;6.780;2023-04-06T14:28:37;12.75;;;6.92;;
23451;SDS011;11898;51.130;6.780;2023-04-06T14:31:14;8.73;;;5.85;;
23451;SDS011;11898;51.130;6.780;2023-04-06T14:33:43;9.70;;;6.83;;
23451;SDS011;11898;51.130;6.780;2023-04-06T14:36:13;10.28;;;7.42;;
23451;SDS011;11898;51.130;6.780;2023-04-06T14:38:42;8.68;;;7.15;;
23451;SDS011;11898;51.130;6.780;2023-04-06T14:41:17;12.18;;;8.53;;
23451;SDS011;11898;51.130;6.780;2023-04-06T14:43:46;13.43;;;8.53;;
23451;SDS011;11898;51.130;6.780;2023-04-06T14:46:15;6.50;;;4.30;;
23451;SDS011;11898;51.130;6.780;2023-04-06T14:48:44;10.80;;;7.72;;